createdAt,value
2022-11-27T00:02:40.305Z,4.34
2022-11-27T00:05:58.772Z,4.32
2022-11-27T00:09:16.007Z,4.30
2022-11-27T00:12:25.888Z,4.29
2022-11-27T00:15:37.606Z,4.27
2022-11-27T00:18:51.033Z,4.27
2022-11-27T00:22:02.941Z,4.24
2022-11-27T00:25:15.912Z,4.23
2022-11-27T00:28:27.842Z,4.19
2022-11-27T00:31:41.441Z,4.06
2022-11-27T00:34:53.173Z,4.06
2022-11-27T00:38:05.025Z,4.12
2022-11-27T00:41:20.475Z,4.14
2022-11-27T00:44:32.194Z,4.07
2022-11-27T00:47:43.963Z,4.09
2022-11-27T00:50:55.648Z,4.13
2022-11-27T00:54:08.068Z,4.16
2022-11-27T00:57:19.785Z,4.11
2022-11-27T01:00:31.867Z,4.16
2022-11-27T01:03:43.600Z,4.16
2022-11-27T01:06:55.353Z,4.03
2022-11-27T01:10:07.463Z,3.98
2022-11-27T01:13:19.122Z,4.06
2022-11-27T01:16:34.447Z,4.09
2022-11-27T01:19:46.432Z,4.13
2022-11-27T01:22:58.003Z,4.15
2022-11-27T01:26:12.997Z,4.18
2022-11-27T01:29:24.658Z,4.18
2022-11-27T01:32:36.285Z,4.14
2022-11-27T01:35:48.129Z,4.11
2022-11-27T01:39:00.149Z,4.09
2022-11-27T01:42:13.193Z,4.06
2022-11-27T01:45:26.991Z,3.94
2022-11-27T01:48:38.906Z,3.92
2022-11-27T01:51:55.673Z,3.93
2022-11-27T01:55:11.835Z,3.97
2022-11-27T01:58:28.917Z,3.89
2022-11-27T02:01:38.883Z,3.75
2022-11-27T02:04:50.842Z,3.85
2022-11-27T02:08:06.918Z,3.90
2022-11-27T02:11:23.537Z,3.92
2022-11-27T02:14:41.872Z,3.92
2022-11-27T02:18:00.639Z,3.93
2022-11-27T02:21:18.421Z,3.89
2022-11-27T02:24:53.753Z,3.90
2022-11-27T02:28:25.975Z,3.82
2022-11-27T02:31:44.943Z,3.84
2022-11-27T02:35:02.970Z,3.88
2022-11-27T02:38:19.275Z,3.93
2022-11-27T02:41:36.164Z,3.94
2022-11-27T02:44:53.984Z,3.83
2022-11-27T02:48:06.601Z,3.84
2022-11-27T02:51:21.324Z,3.88
2022-11-27T02:54:36.091Z,3.93
2022-11-27T02:57:49.755Z,3.95
2022-11-27T03:01:03.436Z,3.96
2022-11-27T03:04:20.638Z,3.93
2022-11-27T03:07:34.537Z,3.92
2022-11-27T03:10:52.874Z,3.92
2022-11-27T03:14:09.296Z,3.94
2022-11-27T03:17:34.666Z,3.92
2022-11-27T03:20:49.651Z,3.76
2022-11-27T03:24:01.611Z,3.78
2022-11-27T03:27:14.860Z,3.84
2022-11-27T03:30:26.586Z,3.87
2022-11-27T03:33:38.988Z,3.88
2022-11-27T03:36:51.019Z,3.82
2022-11-27T03:40:03.288Z,3.74
2022-11-27T03:43:21.305Z,3.73
2022-11-27T03:46:40.018Z,3.77
2022-11-27T03:50:04.892Z,3.81
2022-11-27T03:53:23.473Z,3.82
2022-11-27T03:56:41.027Z,3.84
2022-11-27T03:59:55.616Z,3.83
2022-11-27T04:03:08.566Z,3.86
2022-11-27T04:06:20.366Z,3.78
2022-11-27T04:09:32.178Z,3.68
2022-11-27T04:12:46.307Z,3.63
2022-11-27T04:15:58.138Z,3.70
2022-11-27T04:19:10.025Z,3.63
2022-11-27T04:22:21.911Z,3.53
2022-11-27T04:25:34.261Z,3.48
2022-11-27T04:28:46.159Z,3.43
2022-11-27T04:31:57.758Z,3.39
2022-11-27T04:35:10.122Z,3.39
2022-11-27T04:38:22.362Z,3.49
2022-11-27T04:41:33.994Z,3.57
2022-11-27T04:44:45.616Z,3.57
2022-11-27T04:47:57.224Z,3.49
2022-11-27T04:51:09.100Z,3.56
2022-11-27T04:54:21.007Z,3.53
2022-11-27T04:57:32.860Z,3.48
2022-11-27T05:00:44.494Z,3.42
2022-11-27T05:03:56.362Z,3.41
2022-11-27T05:07:08.048Z,3.45
2022-11-27T05:10:19.975Z,3.49
2022-11-27T05:13:31.624Z,3.53
2022-11-27T05:16:43.354Z,3.54
2022-11-27T05:19:54.970Z,3.46
2022-11-27T05:23:06.660Z,3.53
2022-11-27T05:26:18.326Z,3.56
2022-11-27T05:29:30.687Z,3.58
2022-11-27T05:32:42.712Z,3.64
2022-11-27T05:35:54.338Z,3.59
2022-11-27T05:39:08.022Z,3.51
2022-11-27T05:42:19.955Z,3.49
2022-11-27T05:45:31.599Z,3.57
2022-11-27T05:48:43.293Z,3.60
2022-11-27T05:51:55.057Z,3.62
2022-11-27T05:55:06.855Z,3.49
2022-11-27T05:58:18.866Z,3.54
2022-11-27T06:01:30.940Z,3.56
2022-11-27T06:04:43.128Z,3.58
2022-11-27T06:07:54.883Z,3.64
2022-11-27T06:11:12.693Z,3.65
2022-11-27T06:14:24.428Z,3.58
2022-11-27T06:17:36.335Z,3.59
2022-11-27T06:20:52.777Z,3.57
2022-11-27T06:24:03.186Z,3.65
2022-11-27T06:27:15.013Z,3.69
2022-11-27T06:30:27.272Z,3.70
2022-11-27T06:33:39.008Z,3.70
2022-11-27T06:36:51.346Z,3.65
2022-11-27T06:40:03.320Z,3.64
2022-11-27T06:43:15.422Z,3.65
2022-11-27T06:46:30.077Z,3.64
2022-11-27T06:49:42.210Z,3.65
2022-11-27T06:52:54.079Z,3.66
2022-11-27T06:56:08.854Z,3.64
2022-11-27T06:59:20.794Z,3.60
2022-11-27T07:02:32.530Z,3.50
2022-11-27T07:05:44.931Z,3.44
2022-11-27T07:08:57.827Z,3.45
2022-11-27T07:12:12.304Z,3.47
2022-11-27T07:15:24.100Z,3.41
2022-11-27T07:18:38.187Z,3.45
2022-11-27T07:21:49.995Z,3.56
2022-11-27T07:25:01.695Z,3.59
2022-11-27T07:28:18.626Z,3.66
2022-11-27T07:31:31.811Z,3.74
2022-11-27T07:34:43.649Z,3.79
2022-11-27T07:37:55.742Z,3.80
2022-11-27T07:41:09.724Z,3.84
2022-11-27T07:44:22.160Z,3.91
2022-11-27T07:47:35.090Z,3.91
2022-11-27T07:50:48.081Z,4.01
2022-11-27T07:53:59.840Z,4.11
2022-11-27T07:57:11.811Z,4.08
2022-11-27T08:00:26.300Z,4.09
2022-11-27T08:03:38.190Z,4.00
2022-11-27T08:06:50.036Z,3.88
2022-11-27T08:10:02.374Z,3.85
2022-11-27T08:13:15.209Z,3.83
2022-11-27T08:16:27.061Z,3.74
2022-11-27T08:19:38.785Z,3.77
2022-11-27T08:22:50.546Z,3.86
2022-11-27T08:26:03.073Z,3.92
2022-11-27T08:29:19.492Z,3.94
2022-11-27T08:32:31.352Z,3.87
2022-11-27T08:35:43.688Z,3.88
2022-11-27T08:38:55.604Z,3.89
2022-11-27T08:42:07.792Z,3.90
2022-11-27T08:45:20.120Z,3.85
2022-11-27T08:48:33.684Z,3.81
2022-11-27T08:51:45.754Z,3.81
2022-11-27T08:54:58.640Z,3.85
2022-11-27T08:58:12.041Z,3.80
2022-11-27T09:01:26.846Z,3.81
2022-11-27T09:04:39.114Z,3.86
2022-11-27T09:07:52.376Z,3.91
2022-11-27T09:11:08.869Z,3.92
2022-11-27T09:14:21.362Z,3.94
2022-11-27T09:17:36.010Z,4.00
2022-11-27T09:20:50.443Z,4.02
2022-11-27T09:24:04.975Z,4.06
2022-11-27T09:27:17.381Z,4.21
2022-11-27T09:30:29.798Z,4.20
2022-11-27T09:33:44.896Z,4.24
2022-11-27T09:36:57.064Z,4.22
2022-11-27T09:40:11.200Z,4.16
2022-11-27T09:43:27.571Z,4.05
2022-11-27T09:46:44.862Z,4.06
2022-11-27T09:50:01.731Z,4.04
2022-11-27T09:53:21.567Z,4.05
2022-11-27T09:56:35.747Z,4.14
2022-11-27T09:59:53.528Z,4.17
2022-11-27T10:03:07.431Z,4.22
2022-11-27T10:06:29.893Z,4.26
2022-11-27T10:09:54.372Z,4.23
2022-11-27T10:13:11.767Z,4.25
2022-11-27T10:16:30.681Z,4.28
2022-11-27T10:19:51.677Z,4.35
2022-11-27T10:23:09.535Z,4.36
2022-11-27T10:26:28.282Z,4.38
2022-11-27T10:29:50.243Z,4.45
2022-11-27T10:33:06.087Z,4.49
2022-11-27T10:36:25.415Z,4.49
2022-11-27T10:39:42.019Z,4.47
2022-11-27T10:43:02.259Z,4.43
2022-11-27T10:46:20.283Z,4.36
2022-11-27T10:49:32.434Z,4.40
2022-11-27T10:52:54.221Z,4.46
2022-11-27T10:56:54.960Z,4.57
2022-11-27T11:00:17.601Z,4.72
2022-11-27T11:03:30.248Z,4.66
2022-11-27T11:06:47.529Z,4.63
2022-11-27T11:10:00.031Z,4.63
2022-11-27T11:13:27.369Z,4.63
2022-11-27T11:16:42.559Z,4.61
2022-11-27T11:19:55.299Z,4.52
2022-11-27T11:23:07.404Z,4.48
2022-11-27T11:26:29.919Z,4.55
2022-11-27T11:29:46.414Z,4.60
2022-11-27T11:33:05.896Z,4.66
2022-11-27T11:36:19.206Z,4.72
2022-11-27T11:39:33.867Z,4.78
2022-11-27T11:42:59.189Z,4.72
2022-11-27T11:46:24.926Z,4.78
2022-11-27T11:49:38.890Z,4.78
2022-11-27T11:52:58.910Z,4.76
2022-11-27T11:56:24.014Z,4.77
2022-11-27T11:59:45.159Z,4.76
2022-11-27T12:03:12.107Z,4.87
2022-11-27T12:06:48.319Z,4.72
2022-11-27T12:10:06.369Z,4.79
2022-11-27T12:13:33.007Z,4.86
2022-11-27T12:16:55.881Z,4.86
2022-11-27T12:20:31.708Z,4.82
2022-11-27T12:24:00.690Z,4.87
2022-11-27T12:27:23.347Z,4.93
2022-11-27T12:30:42.195Z,4.85
2022-11-27T12:34:05.782Z,4.80
2022-11-27T12:37:32.590Z,4.85
2022-11-27T12:40:57.559Z,4.87
2022-11-27T12:44:14.483Z,4.87
2022-11-27T12:47:38.981Z,4.86
2022-11-27T12:50:55.578Z,4.81
2022-11-27T12:54:15.142Z,4.90
2022-11-27T12:57:37.016Z,4.82
2022-11-27T13:00:54.673Z,4.83
2022-11-27T13:04:24.016Z,4.79
2022-11-27T13:07:43.471Z,4.76
2022-11-27T13:11:01.232Z,4.77
2022-11-27T13:14:17.250Z,4.85
2022-11-27T13:17:31.738Z,4.88
2022-11-27T13:20:51.895Z,4.81
2022-11-27T13:24:05.574Z,4.77
2022-11-27T13:27:18.412Z,4.81
2022-11-27T13:30:34.630Z,4.79
2022-11-27T13:33:50.635Z,4.72
2022-11-27T13:37:07.587Z,4.76
2022-11-27T13:40:25.329Z,4.76
2022-11-27T13:43:46.818Z,4.62
2022-11-27T13:47:02.483Z,4.61
2022-11-27T13:50:17.362Z,4.63
2022-11-27T13:53:41.758Z,4.63
2022-11-27T13:56:54.338Z,4.68
2022-11-27T14:00:09.876Z,4.64
2022-11-27T14:03:34.933Z,4.66
2022-11-27T14:06:51.083Z,4.64
2022-11-27T14:10:07.488Z,4.66
2022-11-27T14:13:24.763Z,4.61
2022-11-27T14:16:39.010Z,4.56
2022-11-27T14:19:56.465Z,4.55
2022-11-27T14:23:12.758Z,4.50
2022-11-27T14:26:31.569Z,4.47
2022-11-27T14:29:43.947Z,4.42
2022-11-27T14:32:56.982Z,4.42
2022-11-27T14:36:11.819Z,4.45
2022-11-27T14:39:34.572Z,4.37
2022-11-27T14:42:46.550Z,4.38
2022-11-27T14:46:03.224Z,4.38
2022-11-27T14:49:25.016Z,4.33
2022-11-27T14:52:39.182Z,4.25
2022-11-27T14:55:53.978Z,4.33
2022-11-27T14:59:08.291Z,4.42
2022-11-27T15:02:29.131Z,4.35
2022-11-27T15:05:43.405Z,4.37
2022-11-27T15:09:23.669Z,4.30
2022-11-27T15:12:19.314Z,4.29
2022-11-27T15:15:34.796Z,4.31
2022-11-27T15:18:51.116Z,4.31
2022-11-27T15:22:03.716Z,4.27
2022-11-27T15:25:42.806Z,4.25
2022-11-27T15:29:01.247Z,4.27
2022-11-27T15:32:24.707Z,4.24
2022-11-27T15:35:38.480Z,4.15
2022-11-27T15:38:51.384Z,4.13
2022-11-27T15:42:06.160Z,3.98
2022-11-27T15:45:19.200Z,3.95
2022-11-27T15:48:31.595Z,3.90
2022-11-27T15:51:44.264Z,3.98
2022-11-27T15:54:57.370Z,3.88
2022-11-27T15:58:09.876Z,3.88
2022-11-27T16:01:22.934Z,3.88
2022-11-27T16:04:35.647Z,3.91
2022-11-27T16:07:52.300Z,3.96
2022-11-27T16:11:07.971Z,3.89
2022-11-27T16:14:20.405Z,3.88
2022-11-27T16:17:32.503Z,3.92
2022-11-27T16:20:44.870Z,3.91
2022-11-27T16:23:58.926Z,3.86
2022-11-27T16:27:11.132Z,3.86
2022-11-27T16:30:23.794Z,3.82
2022-11-27T16:33:37.853Z,3.79
2022-11-27T16:36:50.521Z,3.84
2022-11-27T16:40:02.716Z,3.88
2022-11-27T16:43:15.580Z,3.91
2022-11-27T16:46:31.448Z,3.91
2022-11-27T16:49:43.835Z,3.86
2022-11-27T16:52:59.725Z,3.79
2022-11-27T16:56:19.441Z,3.76
2022-11-27T16:59:31.595Z,3.82
2022-11-27T17:02:44.177Z,3.81
2022-11-27T17:05:56.914Z,3.80
2022-11-27T17:09:11.808Z,3.81
2022-11-27T17:12:23.590Z,3.80
2022-11-27T17:15:40.349Z,3.78
2022-11-27T17:18:50.839Z,3.78
2022-11-27T17:22:03.572Z,3.75
2022-11-27T17:25:17.599Z,3.80
2022-11-27T17:28:30.003Z,3.77
2022-11-27T17:31:42.553Z,3.76
2022-11-27T17:34:57.541Z,3.78
2022-11-27T17:38:10.203Z,3.80
2022-11-27T17:41:22.666Z,3.79
2022-11-27T17:44:35.591Z,3.82
2022-11-27T17:47:47.877Z,3.75
2022-11-27T17:51:00.856Z,3.64
2022-11-27T17:54:14.383Z,3.61
2022-11-27T17:57:26.355Z,3.56
2022-11-27T18:00:40.474Z,3.51
2022-11-27T18:03:53.227Z,3.46
2022-11-27T18:07:05.381Z,3.47
2022-11-27T18:10:18.510Z,3.56
2022-11-27T18:13:32.611Z,3.60
2022-11-27T18:16:45.384Z,3.59
2022-11-27T18:19:59.587Z,3.61
2022-11-27T18:23:12.042Z,3.57
2022-11-27T18:26:45.344Z,3.53
2022-11-27T18:29:41.751Z,3.56
2022-11-27T18:32:54.086Z,3.48
2022-11-27T18:36:06.467Z,3.53
2022-11-27T18:39:18.637Z,3.60
2022-11-27T18:42:32.560Z,3.60
2022-11-27T18:45:44.905Z,3.53
2022-11-27T18:48:58.813Z,3.43
2022-11-27T18:52:13.882Z,3.37
2022-11-27T18:55:26.077Z,3.39
2022-11-27T18:58:39.677Z,3.39
2022-11-27T19:01:51.950Z,3.42
2022-11-27T19:05:04.093Z,3.41
2022-11-27T19:08:16.627Z,3.49
2022-11-27T19:11:31.085Z,3.57
2022-11-27T19:14:43.324Z,3.59
2022-11-27T19:17:55.695Z,3.55
2022-11-27T19:21:09.929Z,3.54
2022-11-27T19:24:22.251Z,3.52
2022-11-27T19:27:36.149Z,3.53
2022-11-27T19:30:49.547Z,3.49
2022-11-27T19:34:04.642Z,3.45
2022-11-27T19:37:28.888Z,3.45
2022-11-27T19:40:37.197Z,3.50
2022-11-27T19:43:49.969Z,3.45
2022-11-27T19:47:03.301Z,3.32
2022-11-27T19:50:18.101Z,3.43
2022-11-27T19:53:30.139Z,3.44
2022-11-27T19:56:43.924Z,3.44
2022-11-27T19:59:57.097Z,3.46
2022-11-27T20:03:09.665Z,3.36
2022-11-27T20:06:24.389Z,3.36
2022-11-27T20:09:37.076Z,3.32
2022-11-27T20:12:49.186Z,3.33
2022-11-27T20:16:01.435Z,3.32
2022-11-27T20:19:14.294Z,3.31
2022-11-27T20:22:26.538Z,3.29
2022-11-27T20:25:38.362Z,3.29
2022-11-27T20:28:50.754Z,3.28
2022-11-27T20:32:03.738Z,3.31
2022-11-27T20:35:16.844Z,3.33
2022-11-27T20:38:30.306Z,3.32
2022-11-27T20:41:43.472Z,3.34
2022-11-27T20:44:56.268Z,3.29
2022-11-27T20:48:08.313Z,3.30
2022-11-27T20:51:22.524Z,3.25
2022-11-27T20:54:34.683Z,3.19
2022-11-27T20:57:48.055Z,3.12
2022-11-27T21:01:02.694Z,3.15
2022-11-27T21:04:26.115Z,3.15
2022-11-27T21:07:41.878Z,3.14
2022-11-27T21:10:54.520Z,3.15
2022-11-27T21:14:12.366Z,3.16
2022-11-27T21:17:26.026Z,3.13
2022-11-27T21:20:38.627Z,3.06
2022-11-27T21:23:51.199Z,3.08
2022-11-27T21:27:04.265Z,3.07
2022-11-27T21:30:19.340Z,3.09
2022-11-27T21:33:31.936Z,3.12
2022-11-27T21:36:45.861Z,3.14
2022-11-27T21:39:58.459Z,3.16
2022-11-27T21:43:10.364Z,3.16
2022-11-27T21:46:25.029Z,3.09
2022-11-27T21:49:36.934Z,3.06
2022-11-27T21:52:49.138Z,3.05
2022-11-27T21:56:01.232Z,3.04
2022-11-27T21:59:16.488Z,3.02
2022-11-27T22:02:28.296Z,3.02
2022-11-27T22:05:40.706Z,3.07
2022-11-27T22:08:55.054Z,3.09
2022-11-27T22:12:07.003Z,3.00
2022-11-27T22:15:19.276Z,2.99
2022-11-27T22:18:31.247Z,2.92
2022-11-27T22:21:43.233Z,2.95
2022-11-27T22:24:54.992Z,3.00
2022-11-27T22:28:06.839Z,2.97
2022-11-27T22:31:21.436Z,2.97
2022-11-27T22:34:34.016Z,2.92
2022-11-27T22:37:46.074Z,2.84
2022-11-27T22:41:03.319Z,2.84
2022-11-27T22:44:20.994Z,2.80
2022-11-27T22:47:34.309Z,2.82
2022-11-27T22:50:46.352Z,2.84
2022-11-27T22:53:58.305Z,2.90
2022-11-27T22:57:11.076Z,2.91
2022-11-27T23:00:24.531Z,2.96
2022-11-27T23:03:38.834Z,2.96
2022-11-27T23:06:52.064Z,2.98
2022-11-27T23:10:04.314Z,2.95
2022-11-27T23:13:16.231Z,2.97
2022-11-27T23:16:29.382Z,2.95
2022-11-27T23:19:41.132Z,2.97
2022-11-27T23:22:53.044Z,2.90
2022-11-27T23:26:27.021Z,2.80
2022-11-27T23:29:38.754Z,2.79
2022-11-27T23:32:50.639Z,2.74
2022-11-27T23:36:08.084Z,2.70
2022-11-27T23:39:21.015Z,2.76
2022-11-27T23:42:32.818Z,2.77
2022-11-27T23:45:46.677Z,2.80
2022-11-27T23:48:59.440Z,2.81
2022-11-27T23:52:16.840Z,2.73
2022-11-27T23:55:25.691Z,2.72
2022-11-27T23:58:39.327Z,2.73
